Portada
METAR-TAF:

METAR-TAF

Aeropuertos :

Hoonah, Alaska, Estados Unidos

latitud: 58-07N, longitud: 135-27W, altitud: 0 m

Observación

El informe se hizo hace 29 minutos, a las 05:56 UTC
Viento 4 kt con dirección variable
Temperatura 14°C
Humedad 72%
Presión 1024 hPa
Visibilidad: 16.1 km
Cielo cubierto a una altura de 3300 ft

METAR: PAOH 200556Z AUTO VRB04KT 10SM OVC033 14/09 A3024 RMK AO2 SLP242 T01440094 10183 20144 53007

Hora: 22:25 (06:25 UTC)


TAF: falta

Observaciones y pronósticos meteorológicos de más de 4000 aeropuertos (mensajes METAR y TAF).

Los puntos amarillos y rojos representan las estaciones disponibles.

Ponga el ratón en el punto deseado para ver el nombre de la estación.

Haga clic para ver las observaciones y los pronósticos meteorológicos.

Para cambiar el mapa : haga clic en los botones verdes con una cruz de color negro para hacer un zoom, en el botón verde con un guión para alejar o en las flechas verdes para mapas adyacentes.


METAR-TAF: